createdAt,value
2022-12-04T00:02:02.219Z,1.93
2022-12-04T00:04:28.679Z,2.08
2022-12-04T00:06:58.684Z,2.05
2022-12-04T00:09:25.462Z,2.00
2022-12-04T00:11:51.815Z,2.03
2022-12-04T00:14:18.124Z,1.92
2022-12-04T00:16:44.541Z,1.91
2022-12-04T00:19:10.903Z,2.01
2022-12-04T00:21:37.263Z,1.92
2022-12-04T00:24:03.588Z,1.96
2022-12-04T00:26:31.250Z,1.88
2022-12-04T00:28:57.612Z,2.01
2022-12-04T00:31:23.983Z,1.93
2022-12-04T00:33:50.355Z,1.88
2022-12-04T00:36:16.715Z,1.87
2022-12-04T00:38:44.138Z,1.79
2022-12-04T00:41:10.476Z,1.96
2022-12-04T00:43:36.787Z,1.91
2022-12-04T00:46:06.219Z,1.77
2022-12-04T00:48:32.609Z,1.74
2022-12-04T00:50:59.126Z,1.69
2022-12-04T00:53:25.448Z,1.73
2022-12-04T00:55:51.774Z,1.73
2022-12-04T00:58:18.073Z,1.70
2022-12-04T01:00:44.451Z,1.68
2022-12-04T01:03:10.870Z,1.89
2022-12-04T01:05:37.300Z,1.86
2022-12-04T01:08:03.728Z,1.85
2022-12-04T01:10:30.077Z,1.97
2022-12-04T01:12:56.400Z,1.84
2022-12-04T01:15:22.725Z,1.90
2022-12-04T01:17:49.083Z,2.04
2022-12-04T01:20:15.420Z,1.82
2022-12-04T01:22:41.777Z,1.82
2022-12-04T01:25:08.101Z,2.01
2022-12-04T01:27:34.423Z,2.02
2022-12-04T01:30:00.824Z,1.96
2022-12-04T01:32:27.137Z,1.91
2022-12-04T01:34:53.468Z,2.00
2022-12-04T01:37:19.781Z,1.88
2022-12-04T01:39:46.125Z,1.90
2022-12-04T01:42:12.497Z,1.92
2022-12-04T01:44:38.844Z,2.04
2022-12-04T01:47:05.173Z,2.01
2022-12-04T01:49:31.534Z,2.00
2022-12-04T01:51:57.838Z,1.99
2022-12-04T01:54:28.810Z,2.03
2022-12-04T01:56:55.378Z,1.87
2022-12-04T01:59:21.719Z,1.83
2022-12-04T02:01:48.083Z,1.95
2022-12-04T02:04:14.460Z,1.87
2022-12-04T02:06:40.772Z,1.99
2022-12-04T02:09:07.127Z,1.99
2022-12-04T02:11:33.456Z,1.99
2022-12-04T02:13:59.866Z,2.00
2022-12-04T02:16:26.244Z,2.04
2022-12-04T02:18:52.618Z,1.97
2022-12-04T02:21:18.921Z,2.03
2022-12-04T02:23:49.267Z,1.90
2022-12-04T02:26:15.578Z,1.93
2022-12-04T02:28:41.889Z,2.01
2022-12-04T02:31:08.242Z,2.15
2022-12-04T02:33:34.643Z,2.10
2022-12-04T02:36:00.956Z,2.15
2022-12-04T02:38:27.300Z,1.92
2022-12-04T02:40:53.630Z,2.00
2022-12-04T02:43:19.990Z,1.97
2022-12-04T02:45:46.688Z,1.91
2022-12-04T02:48:13.071Z,1.99
2022-12-04T02:50:39.415Z,2.07
2022-12-04T02:53:05.741Z,2.09
2022-12-04T02:55:32.085Z,2.08
2022-12-04T02:57:58.414Z,1.98
2022-12-04T03:00:24.741Z,2.03
2022-12-04T03:02:51.727Z,1.94
2022-12-04T03:05:18.106Z,1.92
2022-12-04T03:07:44.506Z,2.02
2022-12-04T03:10:11.187Z,2.02
2022-12-04T03:12:37.537Z,2.07
2022-12-04T03:15:03.949Z,2.10
2022-12-04T03:17:30.283Z,2.09
2022-12-04T03:19:56.884Z,2.02
2022-12-04T03:22:23.963Z,2.09
2022-12-04T03:24:50.281Z,2.16
2022-12-04T03:27:16.596Z,2.16
2022-12-04T03:29:42.970Z,2.20
2022-12-04T03:32:09.382Z,2.19
2022-12-04T03:34:35.712Z,2.01
2022-12-04T03:37:02.035Z,1.99
2022-12-04T03:39:28.349Z,2.15
2022-12-04T03:41:54.732Z,2.08
2022-12-04T03:44:21.070Z,2.12
2022-12-04T03:46:47.377Z,2.07
2022-12-04T03:49:14.031Z,2.26
2022-12-04T03:51:40.359Z,2.16
2022-12-04T03:54:06.675Z,2.22
2022-12-04T03:56:33.064Z,2.15
2022-12-04T03:58:59.387Z,2.20
2022-12-04T04:01:25.758Z,2.15
2022-12-04T04:03:52.173Z,2.05
2022-12-04T04:06:18.469Z,2.10
2022-12-04T04:08:44.819Z,2.17
2022-12-04T04:11:11.291Z,2.14
2022-12-04T04:13:56.629Z,2.14
2022-12-04T04:16:41.513Z,2.26
2022-12-04T04:19:26.652Z,2.27
2022-12-04T04:22:11.632Z,2.37
2022-12-04T04:24:37.954Z,2.33
2022-12-04T04:27:04.297Z,2.42
2022-12-04T04:29:30.602Z,2.38
2022-12-04T04:31:56.942Z,2.43
2022-12-04T04:34:23.371Z,2.40
2022-12-04T04:36:49.719Z,2.41
2022-12-04T04:39:16.034Z,2.44
2022-12-04T04:41:42.349Z,2.49
2022-12-04T04:44:08.655Z,2.52
2022-12-04T04:46:35.077Z,2.60
2022-12-04T04:49:01.475Z,2.54
2022-12-04T04:51:27.791Z,2.47
2022-12-04T04:53:54.100Z,2.51
2022-12-04T04:56:20.416Z,2.43
2022-12-04T04:58:46.779Z,2.51
2022-12-04T05:01:13.276Z,2.64
2022-12-04T05:03:39.624Z,2.47
2022-12-04T05:06:06.702Z,2.55
2022-12-04T05:08:33.033Z,2.64
2022-12-04T05:10:59.361Z,2.62
2022-12-04T05:13:25.671Z,2.63
2022-12-04T05:15:52.068Z,2.65
2022-12-04T05:18:18.410Z,2.82
2022-12-04T05:20:44.717Z,2.81
2022-12-04T05:23:11.027Z,2.70
2022-12-04T05:25:37.343Z,2.68
2022-12-04T05:28:03.674Z,2.62
2022-12-04T05:30:30.010Z,2.81
2022-12-04T05:32:56.322Z,2.85
2022-12-04T05:35:22.669Z,2.77
2022-12-04T05:37:49.042Z,2.75
2022-12-04T05:40:15.395Z,2.71
2022-12-04T05:42:41.746Z,2.76
2022-12-04T05:45:08.072Z,2.77
2022-12-04T05:47:34.382Z,2.73
2022-12-04T05:50:00.693Z,2.67
2022-12-04T05:52:27.011Z,2.74
2022-12-04T05:54:53.336Z,2.63
2022-12-04T05:57:19.656Z,2.75
2022-12-04T05:59:45.970Z,2.69
2022-12-04T06:02:12.414Z,2.66
2022-12-04T06:04:38.776Z,2.59
2022-12-04T06:07:05.178Z,2.70
2022-12-04T06:09:31.497Z,2.62
2022-12-04T06:11:58.113Z,2.59
2022-12-04T06:14:24.437Z,2.62
2022-12-04T06:16:50.854Z,2.62
2022-12-04T06:19:17.263Z,2.64
2022-12-04T06:21:43.613Z,2.59
2022-12-04T06:24:09.978Z,2.66
2022-12-04T06:26:36.298Z,2.52
2022-12-04T06:29:02.640Z,2.57
2022-12-04T06:31:29.087Z,2.62
2022-12-04T06:33:55.453Z,2.69
2022-12-04T06:36:21.778Z,2.70
2022-12-04T06:38:48.119Z,2.74
2022-12-04T06:41:14.438Z,2.83
2022-12-04T06:43:40.804Z,2.82
2022-12-04T06:46:07.187Z,2.77
2022-12-04T06:48:33.559Z,2.93
2022-12-04T06:50:59.927Z,2.88
2022-12-04T06:53:27.839Z,2.88
2022-12-04T06:55:55.012Z,3.01
2022-12-04T06:58:21.336Z,2.94
2022-12-04T07:00:47.768Z,2.98
2022-12-04T07:03:14.151Z,2.90
2022-12-04T07:05:40.476Z,2.90
2022-12-04T07:08:06.908Z,2.97
2022-12-04T07:10:33.309Z,2.93
2022-12-04T07:12:59.626Z,3.03
2022-12-04T07:15:26.804Z,2.97
2022-12-04T07:17:53.115Z,3.10
2022-12-04T07:20:19.431Z,3.02
2022-12-04T07:22:45.766Z,3.09
2022-12-04T07:25:12.087Z,3.22
2022-12-04T07:27:38.389Z,3.14
2022-12-04T07:30:04.716Z,3.07
2022-12-04T07:32:31.027Z,3.14
2022-12-04T07:34:57.333Z,3.11
2022-12-04T07:37:23.633Z,3.00
2022-12-04T07:39:49.942Z,3.11
2022-12-04T07:42:19.692Z,3.08
2022-12-04T07:44:50.316Z,3.16
2022-12-04T07:47:16.639Z,3.13
2022-12-04T07:49:42.964Z,3.16
2022-12-04T07:52:09.280Z,3.30
2022-12-04T07:54:35.593Z,3.22
2022-12-04T07:57:01.951Z,3.26
2022-12-04T07:59:28.298Z,3.44
2022-12-04T08:01:54.693Z,3.51
2022-12-04T08:04:21.092Z,3.47
2022-12-04T08:06:47.649Z,3.53
2022-12-04T08:09:13.994Z,3.59
2022-12-04T08:11:40.374Z,3.69
2022-12-04T08:14:08.959Z,3.58
2022-12-04T08:16:35.412Z,3.60
2022-12-04T08:20:53.698Z,4.05
2022-12-04T08:23:20.013Z,4.05
2022-12-04T08:25:46.351Z,3.58
2022-12-04T08:28:12.748Z,3.58
2022-12-04T08:30:39.113Z,3.62
2022-12-04T08:33:05.469Z,3.73
2022-12-04T08:35:31.803Z,3.70
2022-12-04T08:37:58.407Z,3.84
2022-12-04T08:40:24.714Z,3.75
2022-12-04T08:42:51.044Z,3.79
2022-12-04T08:45:17.362Z,3.71
2022-12-04T08:47:46.862Z,3.65
2022-12-04T08:50:15.623Z,3.70
2022-12-04T08:52:41.984Z,3.86
2022-12-04T08:55:08.412Z,3.84
2022-12-04T08:57:34.720Z,3.92
2022-12-04T09:00:01.268Z,3.92
2022-12-04T09:02:27.582Z,3.83
2022-12-04T09:04:54.036Z,3.88
2022-12-04T09:07:20.437Z,4.07
2022-12-04T09:09:48.510Z,4.23
2022-12-04T09:12:15.755Z,4.29
2022-12-04T09:14:42.350Z,4.33
2022-12-04T09:17:08.725Z,4.36
2022-12-04T09:19:36.039Z,4.35
2022-12-04T09:22:02.390Z,4.27
2022-12-04T09:24:28.730Z,4.36
2022-12-04T09:26:55.110Z,4.51
2022-12-04T09:29:21.441Z,4.46
2022-12-04T09:31:47.770Z,4.49
2022-12-04T09:34:14.090Z,4.67
2022-12-04T09:36:40.426Z,4.75
2022-12-04T09:39:06.794Z,4.79
2022-12-04T09:41:33.136Z,4.63
2022-12-04T09:43:59.518Z,4.75
2022-12-04T09:46:25.913Z,4.91
2022-12-04T09:48:52.340Z,5.03
2022-12-04T09:51:19.744Z,4.99
2022-12-04T09:53:46.064Z,5.19
2022-12-04T09:56:12.397Z,5.34
2022-12-04T09:58:38.735Z,5.47
2022-12-04T10:01:05.078Z,5.47
2022-12-04T10:03:31.496Z,5.58
2022-12-04T10:05:57.849Z,5.58
2022-12-04T10:08:24.192Z,5.74
2022-12-04T10:10:50.571Z,5.77
2022-12-04T10:13:16.928Z,5.74
2022-12-04T10:15:43.363Z,5.78
2022-12-04T10:18:09.684Z,5.81
2022-12-04T10:20:36.008Z,5.85
2022-12-04T10:23:02.409Z,5.78
2022-12-04T10:25:28.725Z,5.85
2022-12-04T10:27:55.057Z,5.87
2022-12-04T10:30:21.404Z,5.88
2022-12-04T10:32:47.718Z,5.96
2022-12-04T10:35:14.027Z,5.93
2022-12-04T10:37:40.340Z,5.88
2022-12-04T10:40:06.664Z,5.95
2022-12-04T10:42:33.041Z,5.85
2022-12-04T10:44:59.449Z,5.85
2022-12-04T10:47:25.851Z,6.03
2022-12-04T10:49:52.163Z,6.01
2022-12-04T10:52:18.579Z,5.98
2022-12-04T10:54:44.971Z,5.89
2022-12-04T10:57:11.345Z,6.01
2022-12-04T10:59:37.663Z,6.01
2022-12-04T11:02:07.056Z,6.12
2022-12-04T11:04:33.783Z,6.10
2022-12-04T11:07:00.178Z,6.07
2022-12-04T11:09:26.571Z,6.02
2022-12-04T11:11:52.962Z,6.12
2022-12-04T11:14:19.289Z,6.19
2022-12-04T11:16:45.787Z,6.15
2022-12-04T11:19:12.127Z,6.23
2022-12-04T11:21:38.449Z,6.18
2022-12-04T11:24:04.877Z,6.19
2022-12-04T11:26:35.115Z,6.19
2022-12-04T11:29:01.697Z,6.21
2022-12-04T11:31:28.087Z,6.16
2022-12-04T11:33:54.448Z,6.30
2022-12-04T11:36:20.829Z,6.24
2022-12-04T11:38:47.178Z,6.25
2022-12-04T11:41:13.501Z,6.26
2022-12-04T11:43:39.823Z,6.30
2022-12-04T11:46:06.903Z,6.24
2022-12-04T11:48:33.225Z,6.20
2022-12-04T11:50:59.533Z,6.30
2022-12-04T11:53:25.913Z,6.27
2022-12-04T11:55:52.217Z,6.27
2022-12-04T11:58:18.521Z,6.32
2022-12-04T12:00:44.977Z,6.32
2022-12-04T12:03:11.588Z,6.29
2022-12-04T12:05:38.057Z,6.25
2022-12-04T12:08:04.409Z,6.29
2022-12-04T12:10:32.002Z,6.36
2022-12-04T12:12:58.349Z,6.32
2022-12-04T12:15:24.949Z,6.45
2022-12-04T12:17:51.263Z,6.39
2022-12-04T12:20:17.638Z,6.38
2022-12-04T12:22:43.970Z,6.45
2022-12-04T12:25:10.297Z,6.47
2022-12-04T12:27:36.756Z,6.45
2022-12-04T12:30:03.117Z,6.50
2022-12-04T12:32:29.524Z,6.43
2022-12-04T12:34:55.893Z,6.46
2022-12-04T12:37:22.559Z,6.43
2022-12-04T12:39:48.925Z,6.44
2022-12-04T12:42:15.234Z,6.48
2022-12-04T12:44:41.565Z,6.50
2022-12-04T12:47:08.187Z,6.45
2022-12-04T12:49:34.510Z,6.51
2022-12-04T12:52:00.844Z,6.58
2022-12-04T12:54:27.189Z,6.47
2022-12-04T12:56:53.589Z,6.50
2022-12-04T12:59:19.964Z,6.54
2022-12-04T13:01:46.407Z,6.45
2022-12-04T13:04:12.824Z,6.57
2022-12-04T13:06:39.172Z,6.61
2022-12-04T13:09:06.012Z,6.57
2022-12-04T13:11:32.353Z,6.52
2022-12-04T13:13:58.775Z,6.56
2022-12-04T13:16:25.124Z,6.60
2022-12-04T13:18:51.530Z,6.49
2022-12-04T13:21:17.851Z,6.56
2022-12-04T13:23:44.170Z,6.66
2022-12-04T13:26:10.551Z,6.58
2022-12-04T13:28:37.970Z,6.57
2022-12-04T13:31:04.570Z,6.60
2022-12-04T13:33:30.967Z,6.66
2022-12-04T13:35:57.303Z,6.69
2022-12-04T13:38:23.629Z,6.73
2022-12-04T13:40:50.001Z,6.71
2022-12-04T13:43:16.449Z,6.63
2022-12-04T13:45:42.790Z,6.68
2022-12-04T13:48:09.104Z,6.72
2022-12-04T13:50:35.433Z,6.74
2022-12-04T13:53:01.791Z,6.80
2022-12-04T13:55:28.134Z,6.78
2022-12-04T13:57:54.619Z,6.74
2022-12-04T14:00:20.937Z,6.73
2022-12-04T14:02:47.305Z,6.77
2022-12-04T14:05:13.651Z,6.74
2022-12-04T14:07:40.156Z,6.72
2022-12-04T14:10:06.629Z,6.68
2022-12-04T14:12:33.009Z,6.74
2022-12-04T14:14:59.382Z,6.78
2022-12-04T14:17:25.770Z,6.82
2022-12-04T14:19:52.089Z,6.89
2022-12-04T14:22:18.386Z,6.84
2022-12-04T14:24:44.729Z,6.74
2022-12-04T14:27:12.099Z,6.90
2022-12-04T14:29:38.614Z,6.88
2022-12-04T14:32:04.932Z,6.40
2022-12-04T14:34:32.002Z,6.18
2022-12-04T14:36:58.418Z,6.09
2022-12-04T14:39:24.897Z,5.88
2022-12-04T14:41:51.212Z,5.74
2022-12-04T14:44:17.562Z,5.66
2022-12-04T14:46:43.926Z,5.75
2022-12-04T14:49:10.391Z,5.77
2022-12-04T14:51:36.714Z,5.71
2022-12-04T14:54:03.583Z,5.66
2022-12-04T14:56:29.902Z,5.70
2022-12-04T14:58:56.228Z,5.63
2022-12-04T15:01:28.346Z,5.67
2022-12-04T15:03:56.106Z,5.53
2022-12-04T15:06:22.467Z,5.53
2022-12-04T15:08:48.800Z,5.46
2022-12-04T15:11:34.019Z,5.39
2022-12-04T15:14:00.339Z,5.37
2022-12-04T15:16:26.809Z,5.31
2022-12-04T15:18:53.226Z,5.36
2022-12-04T15:21:19.544Z,5.46
2022-12-04T15:23:45.949Z,5.48
2022-12-04T15:26:12.283Z,5.62
2022-12-04T15:28:38.605Z,5.64
2022-12-04T15:31:04.958Z,5.77
2022-12-04T15:33:31.313Z,5.74
2022-12-04T15:35:57.631Z,5.80
2022-12-04T15:40:57.009Z,5.74
2022-12-04T15:43:23.318Z,5.71
2022-12-04T15:45:49.645Z,5.61
2022-12-04T15:48:15.962Z,5.66
2022-12-04T15:50:42.269Z,5.63
2022-12-04T15:53:08.630Z,5.65
2022-12-04T15:55:34.952Z,5.67
2022-12-04T15:58:01.302Z,5.65
2022-12-04T16:00:27.654Z,5.63
2022-12-04T16:02:53.968Z,5.57
2022-12-04T16:05:20.290Z,5.45
2022-12-04T16:07:46.620Z,5.29
2022-12-04T16:10:12.941Z,5.23
2022-12-04T16:12:39.370Z,5.33
2022-12-04T16:15:05.691Z,5.23
2022-12-04T16:17:32.035Z,5.28
2022-12-04T16:19:58.356Z,5.33
2022-12-04T16:22:24.762Z,5.40
2022-12-04T16:24:51.140Z,5.47
2022-12-04T16:27:17.559Z,5.61
2022-12-04T16:29:44.710Z,5.72
2022-12-04T16:32:11.055Z,5.83
2022-12-04T16:34:37.367Z,5.87
2022-12-04T16:37:03.701Z,5.98
2022-12-04T16:39:30.020Z,5.97
2022-12-04T16:41:56.363Z,5.98
2022-12-04T16:44:22.683Z,5.92
2022-12-04T16:46:49.027Z,5.99
2022-12-04T16:49:15.384Z,6.02
2022-12-04T16:51:41.794Z,6.04
2022-12-04T16:54:08.159Z,6.13
2022-12-04T16:56:34.485Z,6.16
2022-12-04T16:59:00.798Z,6.19
2022-12-04T17:01:27.170Z,6.21
2022-12-04T17:03:53.625Z,6.11
2022-12-04T17:06:20.117Z,6.04
2022-12-04T17:08:46.521Z,6.06
2022-12-04T17:11:13.145Z,6.10
2022-12-04T17:13:39.454Z,6.06
2022-12-04T17:16:05.838Z,5.98
2022-12-04T17:18:32.601Z,5.92
2022-12-04T17:20:58.965Z,5.74
2022-12-04T17:23:25.339Z,5.74
2022-12-04T17:25:51.680Z,5.74
2022-12-04T17:28:18.010Z,5.61
2022-12-04T17:30:44.386Z,5.54
2022-12-04T17:33:10.753Z,5.48
2022-12-04T17:35:37.066Z,5.38
2022-12-04T17:38:06.163Z,5.40
2022-12-04T17:40:32.765Z,5.47
2022-12-04T17:42:59.096Z,5.60
2022-12-04T17:45:25.555Z,5.59
2022-12-04T17:47:51.898Z,5.73
2022-12-04T17:50:18.228Z,5.85
2022-12-04T17:52:44.539Z,6.03
2022-12-04T17:55:10.861Z,6.02
2022-12-04T17:57:37.198Z,6.13
2022-12-04T18:00:03.563Z,6.14
2022-12-04T18:02:29.935Z,6.22
2022-12-04T18:04:56.678Z,6.32
2022-12-04T18:07:23.374Z,6.38
2022-12-04T18:09:49.746Z,6.39
2022-12-04T18:12:16.086Z,6.51
2022-12-04T18:14:42.448Z,6.57
2022-12-04T18:17:08.829Z,6.45
2022-12-04T18:19:35.183Z,6.36
2022-12-04T18:22:01.539Z,6.56
2022-12-04T18:24:27.911Z,6.59
2022-12-04T18:26:54.227Z,6.71
2022-12-04T18:29:20.558Z,6.72
2022-12-04T18:31:48.993Z,6.77
2022-12-04T18:34:15.366Z,6.81
2022-12-04T18:36:41.673Z,6.88
2022-12-04T18:39:08.321Z,6.85
2022-12-04T18:41:34.694Z,6.88
2022-12-04T18:44:03.159Z,6.83
2022-12-04T18:46:29.509Z,6.79
2022-12-04T18:48:55.886Z,6.89
2022-12-04T18:51:22.345Z,6.88
2022-12-04T18:53:48.698Z,6.84
2022-12-04T18:56:15.098Z,6.83
2022-12-04T18:58:41.832Z,6.89
2022-12-04T19:01:08.332Z,6.89
2022-12-04T19:03:34.697Z,6.85
2022-12-04T19:06:01.095Z,6.95
2022-12-04T19:08:32.898Z,6.87
2022-12-04T19:11:00.601Z,6.88
2022-12-04T19:13:26.912Z,6.88
2022-12-04T19:15:53.281Z,6.97
2022-12-04T19:18:19.634Z,6.97
2022-12-04T19:20:46.006Z,6.98
2022-12-04T19:23:12.386Z,6.98
2022-12-04T19:25:38.776Z,6.93
2022-12-04T19:28:05.123Z,6.97
2022-12-04T19:30:31.537Z,6.97
2022-12-04T19:32:57.962Z,6.97
2022-12-04T19:35:24.343Z,6.99
2022-12-04T19:37:52.705Z,7.02
2022-12-04T19:40:19.378Z,6.95
2022-12-04T19:42:45.707Z,7.01
2022-12-04T19:45:12.239Z,6.98
2022-12-04T19:47:38.554Z,6.96
2022-12-04T19:50:04.854Z,6.97
2022-12-04T19:52:31.194Z,6.95
2022-12-04T19:54:57.534Z,6.97
2022-12-04T19:57:23.846Z,6.92
2022-12-04T19:59:50.180Z,6.97
2022-12-04T20:02:16.588Z,6.98
2022-12-04T20:04:43.378Z,6.98
2022-12-04T20:07:09.716Z,6.98
2022-12-04T20:09:36.089Z,6.93
2022-12-04T20:12:03.194Z,6.98
2022-12-04T20:14:29.514Z,7.02
2022-12-04T20:16:55.912Z,7.00
2022-12-04T20:19:22.583Z,6.98
2022-12-04T20:21:48.979Z,7.04
2022-12-04T20:24:15.340Z,7.01
2022-12-04T20:26:41.738Z,6.99
2022-12-04T20:29:08.056Z,7.04
2022-12-04T20:31:34.386Z,7.02
2022-12-04T20:34:00.719Z,7.03
2022-12-04T20:36:27.060Z,6.98
2022-12-04T20:38:55.348Z,6.99
2022-12-04T20:41:21.673Z,7.00
2022-12-04T20:43:48.004Z,7.04
2022-12-04T20:46:14.475Z,7.02
2022-12-04T20:48:46.563Z,7.02
2022-12-04T20:51:12.875Z,7.03
2022-12-04T20:53:39.199Z,7.07
2022-12-04T20:56:05.528Z,7.00
2022-12-04T20:58:31.864Z,6.98
2022-12-04T21:00:58.280Z,7.00
2022-12-04T21:03:24.735Z,7.00
2022-12-04T21:05:51.066Z,6.97
2022-12-04T21:08:37.356Z,7.01
2022-12-04T21:11:03.675Z,6.99
2022-12-04T21:13:48.875Z,6.95
2022-12-04T21:16:17.800Z,7.06
2022-12-04T21:18:44.175Z,7.04
2022-12-04T21:21:10.477Z,7.05
2022-12-04T21:23:36.802Z,7.05
2022-12-04T21:26:03.145Z,7.01
2022-12-04T21:28:31.266Z,7.05
2022-12-04T21:30:57.638Z,7.09
2022-12-04T21:33:23.989Z,7.09
2022-12-04T21:35:50.323Z,7.02
2022-12-04T21:38:16.639Z,7.05
2022-12-04T21:40:42.967Z,7.01
2022-12-04T21:43:09.272Z,7.02
2022-12-04T22:00:06.014Z,6.97
2022-12-04T22:02:32.671Z,6.93
2022-12-04T22:04:59.046Z,6.92
2022-12-04T22:07:25.414Z,7.03
2022-12-04T22:09:51.748Z,7.07
2022-12-04T22:12:49.138Z,6.96
2022-12-04T22:15:04.396Z,6.98
2022-12-04T22:17:30.729Z,6.99
2022-12-04T22:19:57.406Z,7.00
2022-12-04T22:22:23.931Z,6.99
2022-12-04T22:24:50.250Z,6.96
2022-12-04T22:27:16.698Z,6.99
2022-12-04T22:29:51.210Z,6.99
2022-12-04T22:32:17.914Z,6.91
2022-12-04T22:34:44.233Z,6.94
2022-12-04T22:37:10.607Z,6.89
2022-12-04T22:39:36.955Z,6.80
2022-12-04T22:42:06.889Z,6.86
2022-12-04T22:44:33.192Z,6.78
2022-12-04T22:46:59.633Z,6.75
2022-12-04T22:49:25.978Z,6.78
2022-12-04T22:51:52.315Z,6.78
2022-12-04T22:54:18.635Z,6.75
2022-12-04T22:56:44.980Z,6.78
2022-12-04T22:59:11.382Z,6.77
2022-12-04T23:01:37.731Z,6.73
2022-12-04T23:04:04.083Z,6.75
2022-12-04T23:06:30.431Z,6.77
2022-12-04T23:08:56.760Z,6.75
2022-12-04T23:11:23.189Z,6.80
2022-12-04T23:13:49.739Z,6.82
2022-12-04T23:16:20.070Z,6.83
2022-12-04T23:18:46.951Z,6.77
2022-12-04T23:21:13.283Z,6.82
2022-12-04T23:23:39.586Z,6.81
2022-12-04T23:26:05.973Z,6.79
2022-12-04T23:28:32.293Z,6.81
2022-12-04T23:30:58.711Z,6.81
2022-12-04T23:33:25.051Z,6.83
2022-12-04T23:35:51.359Z,6.77
2022-12-04T23:38:17.691Z,6.79
2022-12-04T23:40:44.047Z,6.77
2022-12-04T23:43:10.349Z,6.80
2022-12-04T23:45:36.814Z,6.82
2022-12-04T23:48:03.119Z,6.82
2022-12-04T23:50:29.431Z,6.80
2022-12-04T23:52:55.788Z,6.83
2022-12-04T23:55:22.144Z,6.80
2022-12-04T23:57:48.535Z,6.84
